Atomic City, ID

2:10 PM MST on February 27, 2015 (GMT -0700)
MyIdahoWeather.com | Change Station
CLOSE
Current Station
Personal Weather Station
Location: Blackfoot, ID
Elevation: 4534 ft
Nearby Weather Stations

Elev 4534 ft 43.27 °N, 112.52 °W | Updated 3 seconds ago

Overcast
Overcast
34.6 °F
Feels Like 35 °F
N
1.2
Wind Variable Wind from NE
Gusts 3.5 mph

Today
High -- | Low -- °F
--% Chance of Precip.
Yesterday
High -- | Low -- °F
Precip. -- in
7:11 AM 6:17 PM
Waxing Gibbous, 71% visible
Pressure 29.84 in
Visibility 10.0 miles
Clouds Scattered Clouds 1900 ft
Mostly Cloudy 2400 ft
Overcast 3400 ft
Windchill 35 °F
Dew Point 26 °F
Humidity 72%
Rainfall 0.00 in
Snow Depth Not available.
UV 2.1 out of 12
Pollen 2.80 out of 12
Air Quality Not available.
Flu Activity Not available.
METAR KIDA 272053Z 00000KT 10SM SCT019 BKN024 OVC034 00/M04 A2976 RMK AO2 SNE08 SLP103 P0000 60000 T00001039 56013

More Conditions Fewer Conditions

Pressure 29.84 in
Visibility 10.0 miles
Clouds Scattered Clouds 1900 ft
Mostly Cloudy 2400 ft
Overcast 3400 ft
Windchill 35 °F
Dew Point 26 °F
Humidity 72%
Rainfall 0.00 in
Snow Depth Not available.
UV 2.1 out of 12
Pollen 2.80 out of 12
Air Quality Not available.
Flu Activity Not available.
METAR KIDA 272053Z 00000KT 10SM SCT019 BKN024 OVC034 00/M04 A2976 RMK AO2 SNE08 SLP103 P0000 60000 T00001039 56013

More Conditions Fewer Conditions

10-Day Weather Forecast

Almanac

Astronomy

Feb. 27, 2015 Rise Set
Actual Time
Civil Twilight
Nautical Twilight
Astronomical Twilight
Moon
Length of Visible Light
Length of Day
Tomorrow will be .
, % of the Moon is Illuminated

Today's Extremes

State Highs State Lows

Community

WunderPhotos

Upload Photos

1,800,828 photos uploaded!

WunderBlogs® & News

Nearby

Air Quality

  Air Quality AQ Index Pollutant
Not available.

Snow Depth

Station Depth Elevation

Earthquake Activity

City Distance Mag. Time & Date
Minimum magnitude displayed is 2.5.

Coastal Water Temperatures

Place Temperature

Nearby Weather Stations